sensor_id;sensor_type;location;lat;lon;timestamp;temperature;humidity
19847;DHT22;10084;50.518;8.588;2022-11-20T00:01:26;20.70;48.40
19847;DHT22;10084;50.518;8.588;2022-11-20T00:03:54;20.80;48.40
19847;DHT22;10084;50.518;8.588;2022-11-20T00:06:21;20.80;48.30
19847;DHT22;10084;50.518;8.588;2022-11-20T00:08:47;20.80;48.20
19847;DHT22;10084;50.518;8.588;2022-11-20T00:11:21;20.80;48.20
19847;DHT22;10084;50.518;8.588;2022-11-20T00:13:49;20.80;48.10
19847;DHT22;10084;50.518;8.588;2022-11-20T00:16:18;20.80;48.00
19847;DHT22;10084;50.518;8.588;2022-11-20T00:18:46;20.80;48.00
19847;DHT22;10084;50.518;8.588;2022-11-20T00:21:17;20.80;47.90
19847;DHT22;10084;50.518;8.588;2022-11-20T00:23:44;20.80;47.90
19847;DHT22;10084;50.518;8.588;2022-11-20T00:26:12;19.80;47.70
19847;DHT22;10084;50.518;8.588;2022-11-20T00:28:38;20.80;47.70
19847;DHT22;10084;50.518;8.588;2022-11-20T00:31:06;20.70;47.60
19847;DHT22;10084;50.518;8.588;2022-11-20T00:33:33;20.70;47.60
19847;DHT22;10084;50.518;8.588;2022-11-20T00:36:04;20.70;47.60
19847;DHT22;10084;50.518;8.588;2022-11-20T00:38:31;20.70;47.50
19847;DHT22;10084;50.518;8.588;2022-11-20T00:41:01;20.70;47.50
19847;DHT22;10084;50.518;8.588;2022-11-20T00:43:27;20.70;47.40
19847;DHT22;10084;50.518;8.588;2022-11-20T00:46:17;20.70;47.30
19847;DHT22;10084;50.518;8.588;2022-11-20T00:48:43;20.70;47.30
19847;DHT22;10084;50.518;8.588;2022-11-20T00:51:11;20.70;47.30
19847;DHT22;10084;50.518;8.588;2022-11-20T00:53:37;20.70;47.90
19847;DHT22;10084;50.518;8.588;2022-11-20T00:56:06;20.70;47.20
19847;DHT22;10084;50.518;8.588;2022-11-20T00:58:34;20.70;47.20
19847;DHT22;10084;50.518;8.588;2022-11-20T01:01:04;20.70;47.10
19847;DHT22;10084;50.518;8.588;2022-11-20T01:03:37;20.70;47.10
19847;DHT22;10084;50.518;8.588;2022-11-20T01:06:20;20.70;47.10
19847;DHT22;10084;50.518;8.588;2022-11-20T01:08:47;20.70;47.00
19847;DHT22;10084;50.518;8.588;2022-11-20T01:11:16;20.70;47.00
19847;DHT22;10084;50.518;8.588;2022-11-20T01:13:42;20.70;47.00
19847;DHT22;10084;50.518;8.588;2022-11-20T01:16:56;20.70;46.90
19847;DHT22;10084;50.518;8.588;2022-11-20T01:19:05;20.60;47.10
19847;DHT22;10084;50.518;8.588;2022-11-20T01:21:34;20.60;46.80
19847;DHT22;10084;50.518;8.588;2022-11-20T01:24:02;20.60;46.80
19847;DHT22;10084;50.518;8.588;2022-11-20T01:26:31;20.60;46.80
19847;DHT22;10084;50.518;8.588;2022-11-20T01:28:59;20.60;46.80
19847;DHT22;10084;50.518;8.588;2022-11-20T01:31:28;20.60;46.70
19847;DHT22;10084;50.518;8.588;2022-11-20T01:33:56;20.60;46.70
19847;DHT22;10084;50.518;8.588;2022-11-20T01:36:24;20.60;46.70
19847;DHT22;10084;50.518;8.588;2022-11-20T01:38:54;20.60;46.70
19847;DHT22;10084;50.518;8.588;2022-11-20T01:41:21;20.60;46.70
19847;DHT22;10084;50.518;8.588;2022-11-20T01:44:06;20.60;46.60
19847;DHT22;10084;50.518;8.588;2022-11-20T01:46:37;20.60;46.60
19847;DHT22;10084;50.518;8.588;2022-11-20T01:49:16;20.50;46.60
19847;DHT22;10084;50.518;8.588;2022-11-20T01:51:50;20.50;46.50
19847;DHT22;10084;50.518;8.588;2022-11-20T01:54:31;20.50;46.60
19847;DHT22;10084;50.518;8.588;2022-11-20T01:56:59;20.50;46.60
19847;DHT22;10084;50.518;8.588;2022-11-20T01:59:26;20.50;46.50
19847;DHT22;10084;50.518;8.588;2022-11-20T02:01:53;20.50;46.50
19847;DHT22;10084;50.518;8.588;2022-11-20T02:04:20;20.50;46.50
19847;DHT22;10084;50.518;8.588;2022-11-20T02:06:50;20.50;46.50
19847;DHT22;10084;50.518;8.588;2022-11-20T02:09:16;20.50;46.50
19847;DHT22;10084;50.518;8.588;2022-11-20T02:11:42;20.50;46.40
19847;DHT22;10084;50.518;8.588;2022-11-20T02:14:08;20.50;46.40
19847;DHT22;10084;50.518;8.588;2022-11-20T02:16:39;20.50;46.40
19847;DHT22;10084;50.518;8.588;2022-11-20T02:19:09;20.50;46.40
19847;DHT22;10084;50.518;8.588;2022-11-20T02:22:10;20.50;46.40
19847;DHT22;10084;50.518;8.588;2022-11-20T02:24:39;20.40;46.30
19847;DHT22;10084;50.518;8.588;2022-11-20T02:27:14;20.40;46.30
19847;DHT22;10084;50.518;8.588;2022-11-20T02:29:58;20.50;46.30
19847;DHT22;10084;50.518;8.588;2022-11-20T02:32:30;20.40;46.30
19847;DHT22;10084;50.518;8.588;2022-11-20T02:34:57;20.40;46.30
19847;DHT22;10084;50.518;8.588;2022-11-20T02:37:32;20.40;46.30
19847;DHT22;10084;50.518;8.588;2022-11-20T02:39:58;20.40;46.20
19847;DHT22;10084;50.518;8.588;2022-11-20T02:42:23;20.40;46.20
19847;DHT22;10084;50.518;8.588;2022-11-20T02:44:49;20.40;46.20
19847;DHT22;10084;50.518;8.588;2022-11-20T02:47:15;20.40;46.20
19847;DHT22;10084;50.518;8.588;2022-11-20T02:49:40;20.40;46.20
19847;DHT22;10084;50.518;8.588;2022-11-20T02:52:06;20.40;46.20
19847;DHT22;10084;50.518;8.588;2022-11-20T02:54:32;20.40;46.20
19847;DHT22;10084;50.518;8.588;2022-11-20T02:56:58;20.30;46.10
19847;DHT22;10084;50.518;8.588;2022-11-20T02:59:24;20.40;46.30
19847;DHT22;10084;50.518;8.588;2022-11-20T03:01:49;20.30;46.10
19847;DHT22;10084;50.518;8.588;2022-11-20T03:04:15;20.40;46.10
19847;DHT22;10084;50.518;8.588;2022-11-20T03:06:41;20.30;46.10
19847;DHT22;10084;50.518;8.588;2022-11-20T03:09:06;20.30;46.10
19847;DHT22;10084;50.518;8.588;2022-11-20T03:11:32;20.30;46.00
19847;DHT22;10084;50.518;8.588;2022-11-20T03:14:02;20.30;46.10
19847;DHT22;10084;50.518;8.588;2022-11-20T03:16:27;20.30;46.00
19847;DHT22;10084;50.518;8.588;2022-11-20T03:18:53;20.30;46.00
19847;DHT22;10084;50.518;8.588;2022-11-20T03:21:19;20.30;46.00
19847;DHT22;10084;50.518;8.588;2022-11-20T03:23:44;20.30;46.00
19847;DHT22;10084;50.518;8.588;2022-11-20T03:26:19;20.30;46.00
19847;DHT22;10084;50.518;8.588;2022-11-20T03:28:48;20.30;46.00
19847;DHT22;10084;50.518;8.588;2022-11-20T03:31:15;20.30;46.00
19847;DHT22;10084;50.518;8.588;2022-11-20T03:33:41;20.30;46.10
19847;DHT22;10084;50.518;8.588;2022-11-20T03:36:10;20.30;46.00
19847;DHT22;10084;50.518;8.588;2022-11-20T03:38:36;20.30;46.00
19847;DHT22;10084;50.518;8.588;2022-11-20T03:41:08;20.30;45.90
19847;DHT22;10084;50.518;8.588;2022-11-20T03:43:34;20.30;46.00
19847;DHT22;10084;50.518;8.588;2022-11-20T03:46:00;20.30;46.00
19847;DHT22;10084;50.518;8.588;2022-11-20T03:48:26;20.30;46.00
19847;DHT22;10084;50.518;8.588;2022-11-20T03:50:53;20.30;45.90
19847;DHT22;10084;50.518;8.588;2022-11-20T03:53:31;20.30;45.90
19847;DHT22;10084;50.518;8.588;2022-11-20T03:55:57;20.20;45.80
19847;DHT22;10084;50.518;8.588;2022-11-20T03:58:22;20.20;45.80
19847;DHT22;10084;50.518;8.588;2022-11-20T04:00:48;20.30;45.90
19847;DHT22;10084;50.518;8.588;2022-11-20T04:03:13;20.20;45.80
19847;DHT22;10084;50.518;8.588;2022-11-20T04:05:39;20.20;45.80
19847;DHT22;10084;50.518;8.588;2022-11-20T04:08:05;20.20;45.70
19847;DHT22;10084;50.518;8.588;2022-11-20T04:10:30;20.20;45.80
19847;DHT22;10084;50.518;8.588;2022-11-20T04:12:56;20.20;45.80
19847;DHT22;10084;50.518;8.588;2022-11-20T04:15:22;20.20;45.80
19847;DHT22;10084;50.518;8.588;2022-11-20T04:17:47;20.20;45.70
19847;DHT22;10084;50.518;8.588;2022-11-20T04:20:13;20.20;45.70
19847;DHT22;10084;50.518;8.588;2022-11-20T04:22:40;20.20;45.80
19847;DHT22;10084;50.518;8.588;2022-11-20T04:25:05;20.20;45.70
19847;DHT22;10084;50.518;8.588;2022-11-20T04:27:31;20.20;45.80
19847;DHT22;10084;50.518;8.588;2022-11-20T04:29:57;20.20;45.70
19847;DHT22;10084;50.518;8.588;2022-11-20T04:32:22;20.20;45.70
19847;DHT22;10084;50.518;8.588;2022-11-20T04:34:48;20.20;45.70
19847;DHT22;10084;50.518;8.588;2022-11-20T04:37:14;20.20;45.70
19847;DHT22;10084;50.518;8.588;2022-11-20T04:39:39;20.10;45.70
19847;DHT22;10084;50.518;8.588;2022-11-20T04:42:05;20.20;45.70
19847;DHT22;10084;50.518;8.588;2022-11-20T04:44:49;20.10;45.70
19847;DHT22;10084;50.518;8.588;2022-11-20T04:47:15;20.10;45.70
19847;DHT22;10084;50.518;8.588;2022-11-20T04:49:41;20.10;45.70
19847;DHT22;10084;50.518;8.588;2022-11-20T04:52:06;20.10;45.70
19847;DHT22;10084;50.518;8.588;2022-11-20T04:54:32;20.10;45.70
19847;DHT22;10084;50.518;8.588;2022-11-20T04:56:57;20.10;45.70
19847;DHT22;10084;50.518;8.588;2022-11-20T04:59:23;20.20;45.70
19847;DHT22;10084;50.518;8.588;2022-11-20T05:01:49;20.10;45.70
19847;DHT22;10084;50.518;8.588;2022-11-20T05:04:14;20.10;45.70
19847;DHT22;10084;50.518;8.588;2022-11-20T05:06:40;20.10;45.70
19847;DHT22;10084;50.518;8.588;2022-11-20T05:09:06;20.10;45.70
19847;DHT22;10084;50.518;8.588;2022-11-20T05:11:32;20.10;45.70
19847;DHT22;10084;50.518;8.588;2022-11-20T05:13:58;20.10;45.70
19847;DHT22;10084;50.518;8.588;2022-11-20T05:16:25;20.10;45.70
19847;DHT22;10084;50.518;8.588;2022-11-20T05:18:52;20.10;45.70
19847;DHT22;10084;50.518;8.588;2022-11-20T05:21:18;20.10;45.70
19847;DHT22;10084;50.518;8.588;2022-11-20T05:23:45;20.10;45.70
19847;DHT22;10084;50.518;8.588;2022-11-20T05:26:16;20.10;45.70
19847;DHT22;10084;50.518;8.588;2022-11-20T05:28:43;20.10;45.70
19847;DHT22;10084;50.518;8.588;2022-11-20T05:31:10;20.10;45.70
19847;DHT22;10084;50.518;8.588;2022-11-20T05:33:38;20.10;45.70
19847;DHT22;10084;50.518;8.588;2022-11-20T05:36:05;20.10;45.60
19847;DHT22;10084;50.518;8.588;2022-11-20T05:38:31;20.10;45.60
19847;DHT22;10084;50.518;8.588;2022-11-20T05:41:10;20.10;46.30
19847;DHT22;10084;50.518;8.588;2022-11-20T05:43:39;20.10;45.60
19847;DHT22;10084;50.518;8.588;2022-11-20T05:46:06;20.10;45.60
19847;DHT22;10084;50.518;8.588;2022-11-20T05:48:33;20.10;45.60
19847;DHT22;10084;50.518;8.588;2022-11-20T05:51:01;20.10;45.60
19847;DHT22;10084;50.518;8.588;2022-11-20T05:53:27;20.10;45.60
19847;DHT22;10084;50.518;8.588;2022-11-20T05:56:22;20.10;45.60
19847;DHT22;10084;50.518;8.588;2022-11-20T05:58:48;20.10;45.60
19847;DHT22;10084;50.518;8.588;2022-11-20T06:01:18;20.10;45.60
19847;DHT22;10084;50.518;8.588;2022-11-20T06:03:45;20.10;45.60
19847;DHT22;10084;50.518;8.588;2022-11-20T06:06:13;20.10;45.60
19847;DHT22;10084;50.518;8.588;2022-11-20T06:08:40;20.00;45.50
19847;DHT22;10084;50.518;8.588;2022-11-20T06:11:07;20.10;45.60
19847;DHT22;10084;50.518;8.588;2022-11-20T06:13:34;20.00;45.60
19847;DHT22;10084;50.518;8.588;2022-11-20T06:16:00;20.00;45.50
19847;DHT22;10084;50.518;8.588;2022-11-20T06:18:27;20.00;45.50
19847;DHT22;10084;50.518;8.588;2022-11-20T06:21:04;20.00;45.50
19847;DHT22;10084;50.518;8.588;2022-11-20T06:23:31;20.00;45.50
19847;DHT22;10084;50.518;8.588;2022-11-20T06:26:00;20.00;45.50
19847;DHT22;10084;50.518;8.588;2022-11-20T06:28:26;20.00;45.50
19847;DHT22;10084;50.518;8.588;2022-11-20T06:30:51;20.00;45.50
19847;DHT22;10084;50.518;8.588;2022-11-20T06:33:17;20.00;45.50
19847;DHT22;10084;50.518;8.588;2022-11-20T06:35:43;20.00;45.50
19847;DHT22;10084;50.518;8.588;2022-11-20T06:38:08;20.00;45.50
19847;DHT22;10084;50.518;8.588;2022-11-20T06:40:34;20.00;45.50
19847;DHT22;10084;50.518;8.588;2022-11-20T06:43:00;20.00;45.50
19847;DHT22;10084;50.518;8.588;2022-11-20T06:45:25;20.00;45.50
19847;DHT22;10084;50.518;8.588;2022-11-20T06:47:51;20.00;45.50
19847;DHT22;10084;50.518;8.588;2022-11-20T06:50:17;20.00;45.50
19847;DHT22;10084;50.518;8.588;2022-11-20T06:52:43;20.00;45.50
19847;DHT22;10084;50.518;8.588;2022-11-20T06:55:08;20.00;45.50
19847;DHT22;10084;50.518;8.588;2022-11-20T06:57:34;20.00;45.50
19847;DHT22;10084;50.518;8.588;2022-11-20T07:00:00;20.00;45.50
19847;DHT22;10084;50.518;8.588;2022-11-20T07:02:25;20.00;45.50
19847;DHT22;10084;50.518;8.588;2022-11-20T07:04:51;20.00;45.50
19847;DHT22;10084;50.518;8.588;2022-11-20T07:07:17;20.00;45.50
19847;DHT22;10084;50.518;8.588;2022-11-20T07:09:42;20.00;45.50
19847;DHT22;10084;50.518;8.588;2022-11-20T07:12:08;20.00;45.50
19847;DHT22;10084;50.518;8.588;2022-11-20T07:14:34;20.00;45.50
19847;DHT22;10084;50.518;8.588;2022-11-20T07:17:00;20.00;45.70
19847;DHT22;10084;50.518;8.588;2022-11-20T07:19:25;20.00;45.40
19847;DHT22;10084;50.518;8.588;2022-11-20T07:21:51;20.00;45.40
19847;DHT22;10084;50.518;8.588;2022-11-20T07:24:17;20.00;46.20
19847;DHT22;10084;50.518;8.588;2022-11-20T07:26:46;20.00;45.50
19847;DHT22;10084;50.518;8.588;2022-11-20T07:29:12;20.00;45.40
19847;DHT22;10084;50.518;8.588;2022-11-20T07:31:38;20.00;45.50
19847;DHT22;10084;50.518;8.588;2022-11-20T07:34:03;19.90;45.40
19847;DHT22;10084;50.518;8.588;2022-11-20T07:36:29;19.90;45.40
19847;DHT22;10084;50.518;8.588;2022-11-20T07:38:55;19.90;45.40
19847;DHT22;10084;50.518;8.588;2022-11-20T07:41:20;19.90;45.40
19847;DHT22;10084;50.518;8.588;2022-11-20T07:43:46;19.90;45.40
19847;DHT22;10084;50.518;8.588;2022-11-20T07:46:11;19.90;46.10
19847;DHT22;10084;50.518;8.588;2022-11-20T07:48:37;19.90;45.40
19847;DHT22;10084;50.518;8.588;2022-11-20T07:51:03;19.90;45.40
19847;DHT22;10084;50.518;8.588;2022-11-20T07:53:29;19.90;45.40
19847;DHT22;10084;50.518;8.588;2022-11-20T07:55:54;19.90;46.10
19847;DHT22;10084;50.518;8.588;2022-11-20T07:58:20;19.90;45.40
19847;DHT22;10084;50.518;8.588;2022-11-20T08:00:46;19.90;45.40
19847;DHT22;10084;50.518;8.588;2022-11-20T08:03:12;19.90;45.40
19847;DHT22;10084;50.518;8.588;2022-11-20T08:05:38;19.90;45.40
19847;DHT22;10084;50.518;8.588;2022-11-20T08:08:04;19.90;45.50
19847;DHT22;10084;50.518;8.588;2022-11-20T08:10:29;19.90;45.40
19847;DHT22;10084;50.518;8.588;2022-11-20T08:12:55;19.90;45.40
19847;DHT22;10084;50.518;8.588;2022-11-20T08:15:40;19.90;46.10
19847;DHT22;10084;50.518;8.588;2022-11-20T08:18:08;19.90;45.40
19847;DHT22;10084;50.518;8.588;2022-11-20T08:20:34;20.00;45.40
19847;DHT22;10084;50.518;8.588;2022-11-20T08:23:05;20.00;45.40
19847;DHT22;10084;50.518;8.588;2022-11-20T08:25:33;20.00;45.40
19847;DHT22;10084;50.518;8.588;2022-11-20T08:28:00;20.00;45.40
19847;DHT22;10084;50.518;8.588;2022-11-20T08:30:27;20.00;45.40
19847;DHT22;10084;50.518;8.588;2022-11-20T08:32:53;20.00;45.30
19847;DHT22;10084;50.518;8.588;2022-11-20T08:35:22;20.10;45.40
19847;DHT22;10084;50.518;8.588;2022-11-20T08:37:48;20.10;45.30
19847;DHT22;10084;50.518;8.588;2022-11-20T08:40:14;20.10;45.20
19847;DHT22;10084;50.518;8.588;2022-11-20T08:42:50;20.10;45.20
19847;DHT22;10084;50.518;8.588;2022-11-20T08:45:17;20.20;45.90
19847;DHT22;10084;50.518;8.588;2022-11-20T08:47:43;20.20;45.20
19847;DHT22;10084;50.518;8.588;2022-11-20T08:50:14;20.20;45.20
19847;DHT22;10084;50.518;8.588;2022-11-20T08:52:40;20.20;45.10
19847;DHT22;10084;50.518;8.588;2022-11-20T08:55:06;20.30;45.20
19847;DHT22;10084;50.518;8.588;2022-11-20T08:57:33;20.30;45.20
19847;DHT22;10084;50.518;8.588;2022-11-20T08:59:59;20.30;45.10
19847;DHT22;10084;50.518;8.588;2022-11-20T09:02:25;20.30;45.60
19847;DHT22;10084;50.518;8.588;2022-11-20T09:04:51;20.30;45.00
19847;DHT22;10084;50.518;8.588;2022-11-20T09:07:17;20.30;45.00
19847;DHT22;10084;50.518;8.588;2022-11-20T09:09:42;20.30;45.00
19847;DHT22;10084;50.518;8.588;2022-11-20T09:12:08;20.30;44.90
19847;DHT22;10084;50.518;8.588;2022-11-20T09:14:34;20.30;44.90
19847;DHT22;10084;50.518;8.588;2022-11-20T09:16:59;20.40;44.90
19847;DHT22;10084;50.518;8.588;2022-11-20T09:19:25;20.40;44.90
19847;DHT22;10084;50.518;8.588;2022-11-20T09:21:51;20.40;44.90
19847;DHT22;10084;50.518;8.588;2022-11-20T09:24:17;20.40;44.80
19847;DHT22;10084;50.518;8.588;2022-11-20T09:26:43;20.50;45.50
19847;DHT22;10084;50.518;8.588;2022-11-20T09:29:09;20.50;44.70
19847;DHT22;10084;50.518;8.588;2022-11-20T09:31:34;20.50;44.70
19847;DHT22;10084;50.518;8.588;2022-11-20T09:34:00;20.50;44.60
19847;DHT22;10084;50.518;8.588;2022-11-20T09:36:26;20.50;44.50
19847;DHT22;10084;50.518;8.588;2022-11-20T09:38:53;20.50;44.40
19847;DHT22;10084;50.518;8.588;2022-11-20T09:46:57;20.40;44.00
19847;DHT22;10084;50.518;8.588;2022-11-20T09:52:52;20.30;43.80
19847;DHT22;10084;50.518;8.588;2022-11-20T09:55:21;20.30;43.70
19847;DHT22;10084;50.518;8.588;2022-11-20T09:57:48;20.30;43.60
19847;DHT22;10084;50.518;8.588;2022-11-20T10:00:16;20.20;43.50
19847;DHT22;10084;50.518;8.588;2022-11-20T10:03:01;20.20;43.40
19847;DHT22;10084;50.518;8.588;2022-11-20T10:05:40;20.20;43.40
19847;DHT22;10084;50.518;8.588;2022-11-20T10:08:22;20.30;43.40
19847;DHT22;10084;50.518;8.588;2022-11-20T10:11:04;20.30;43.40
19847;DHT22;10084;50.518;8.588;2022-11-20T10:14:06;20.30;43.30
19847;DHT22;10084;50.518;8.588;2022-11-20T10:16:49;20.30;43.30
19847;DHT22;10084;50.518;8.588;2022-11-20T10:22:21;20.30;43.30
19847;DHT22;10084;50.518;8.588;2022-11-20T10:24:56;20.40;43.30
19847;DHT22;10084;50.518;8.588;2022-11-20T10:27:38;20.40;43.30
19847;DHT22;10084;50.518;8.588;2022-11-20T10:32:38;20.40;43.30
19847;DHT22;10084;50.518;8.588;2022-11-20T10:37:42;20.50;43.30
19847;DHT22;10084;50.518;8.588;2022-11-20T10:43:01;20.50;43.30
19847;DHT22;10084;50.518;8.588;2022-11-20T10:45:39;20.50;43.30
19847;DHT22;10084;50.518;8.588;2022-11-20T10:53:47;20.60;43.30
19847;DHT22;10084;50.518;8.588;2022-11-20T10:56:20;20.60;43.30
19847;DHT22;10084;50.518;8.588;2022-11-20T10:59:11;20.60;43.30
19847;DHT22;10084;50.518;8.588;2022-11-20T11:01:43;20.60;43.30
19847;DHT22;10084;50.518;8.588;2022-11-20T11:04:36;20.60;43.30
19847;DHT22;10084;50.518;8.588;2022-11-20T11:07:12;20.60;43.30
19847;DHT22;10084;50.518;8.588;2022-11-20T11:09:48;20.70;43.30
19847;DHT22;10084;50.518;8.588;2022-11-20T11:12:14;20.70;43.30
19847;DHT22;10084;50.518;8.588;2022-11-20T11:14:48;20.70;43.30
19847;DHT22;10084;50.518;8.588;2022-11-20T11:20:03;20.80;43.30
19847;DHT22;10084;50.518;8.588;2022-11-20T11:22:32;20.80;43.40
19847;DHT22;10084;50.518;8.588;2022-11-20T11:24:58;20.80;43.30
19847;DHT22;10084;50.518;8.588;2022-11-20T11:27:24;20.80;43.30
19847;DHT22;10084;50.518;8.588;2022-11-20T11:30:02;20.80;43.30
19847;DHT22;10084;50.518;8.588;2022-11-20T11:32:28;20.80;43.30
19847;DHT22;10084;50.518;8.588;2022-11-20T11:37:46;20.90;43.40
19847;DHT22;10084;50.518;8.588;2022-11-20T11:40:13;20.90;43.40
19847;DHT22;10084;50.518;8.588;2022-11-20T11:42:46;20.90;43.30
19847;DHT22;10084;50.518;8.588;2022-11-20T11:45:15;20.90;43.30
19847;DHT22;10084;50.518;8.588;2022-11-20T11:52:44;20.90;43.40
19847;DHT22;10084;50.518;8.588;2022-11-20T11:55:22;20.90;43.30
19847;DHT22;10084;50.518;8.588;2022-11-20T11:58:54;20.90;43.30
19847;DHT22;10084;50.518;8.588;2022-11-20T12:03:59;21.00;43.20
19847;DHT22;10084;50.518;8.588;2022-11-20T12:06:27;21.00;43.20
19847;DHT22;10084;50.518;8.588;2022-11-20T12:09:01;21.10;43.60
19847;DHT22;10084;50.518;8.588;2022-11-20T12:12:05;21.10;43.10
19847;DHT22;10084;50.518;8.588;2022-11-20T12:14:41;21.10;43.10
19847;DHT22;10084;50.518;8.588;2022-11-20T12:17:13;21.10;43.10
19847;DHT22;10084;50.518;8.588;2022-11-20T12:19:39;21.10;43.10
19847;DHT22;10084;50.518;8.588;2022-11-20T12:41:16;21.10;43.10
19847;DHT22;10084;50.518;8.588;2022-11-20T12:49:49;21.00;42.90
19847;DHT22;10084;50.518;8.588;2022-11-20T12:52:37;21.00;43.10
19847;DHT22;10084;50.518;8.588;2022-11-20T12:55:25;21.00;43.20
19847;DHT22;10084;50.518;8.588;2022-11-20T13:00:23;21.00;43.10
19847;DHT22;10084;50.518;8.588;2022-11-20T13:03:24;21.00;43.10
19847;DHT22;10084;50.518;8.588;2022-11-20T13:06:18;21.00;43.10
19847;DHT22;10084;50.518;8.588;2022-11-20T13:08:52;21.00;43.00
19847;DHT22;10084;50.518;8.588;2022-11-20T13:17:10;21.00;43.00
19847;DHT22;10084;50.518;8.588;2022-11-20T13:19:37;21.00;43.10
19847;DHT22;10084;50.518;8.588;2022-11-20T13:22:03;21.00;43.10
19847;DHT22;10084;50.518;8.588;2022-11-20T13:24:32;21.00;43.10
19847;DHT22;10084;50.518;8.588;2022-11-20T13:29:42;21.00;43.10
19847;DHT22;10084;50.518;8.588;2022-11-20T13:32:16;21.10;43.10
19847;DHT22;10084;50.518;8.588;2022-11-20T13:34:55;21.10;43.10
19847;DHT22;10084;50.518;8.588;2022-11-20T13:37:39;21.10;43.10
19847;DHT22;10084;50.518;8.588;2022-11-20T13:40:13;21.10;43.10
19847;DHT22;10084;50.518;8.588;2022-11-20T13:47:50;21.10;43.20
19847;DHT22;10084;50.518;8.588;2022-11-20T13:50:17;21.10;43.10
19847;DHT22;10084;50.518;8.588;2022-11-20T13:53:01;21.10;43.20
19847;DHT22;10084;50.518;8.588;2022-11-20T13:55:40;21.10;43.50
19847;DHT22;10084;50.518;8.588;2022-11-20T13:58:20;21.10;43.40
19847;DHT22;10084;50.518;8.588;2022-11-20T14:01:07;21.10;43.40
19847;DHT22;10084;50.518;8.588;2022-11-20T14:03:34;21.10;43.40
19847;DHT22;10084;50.518;8.588;2022-11-20T14:06:05;21.10;43.30
19847;DHT22;10084;50.518;8.588;2022-11-20T14:08:42;21.10;43.30
19847;DHT22;10084;50.518;8.588;2022-11-20T14:11:19;21.10;43.40
19847;DHT22;10084;50.518;8.588;2022-11-20T14:14:13;21.10;43.50
19847;DHT22;10084;50.518;8.588;2022-11-20T14:16:40;21.10;43.60
19847;DHT22;10084;50.518;8.588;2022-11-20T14:21:51;21.10;43.80
19847;DHT22;10084;50.518;8.588;2022-11-20T14:24:21;21.10;43.80
19847;DHT22;10084;50.518;8.588;2022-11-20T14:26:48;21.10;44.00
19847;DHT22;10084;50.518;8.588;2022-11-20T14:29:17;21.00;43.50
19847;DHT22;10084;50.518;8.588;2022-11-20T14:31:44;21.10;44.20
19847;DHT22;10084;50.518;8.588;2022-11-20T14:34:17;21.10;44.40
19847;DHT22;10084;50.518;8.588;2022-11-20T14:36:44;21.00;44.40
19847;DHT22;10084;50.518;8.588;2022-11-20T14:39:28;21.00;44.50
19847;DHT22;10084;50.518;8.588;2022-11-20T14:41:54;21.00;44.70
19847;DHT22;10084;50.518;8.588;2022-11-20T14:44:25;21.00;44.70
19847;DHT22;10084;50.518;8.588;2022-11-20T14:46:52;21.00;44.80
19847;DHT22;10084;50.518;8.588;2022-11-20T14:49:18;21.00;44.80
19847;DHT22;10084;50.518;8.588;2022-11-20T14:51:44;21.00;44.90
19847;DHT22;10084;50.518;8.588;2022-11-20T14:54:12;21.00;45.60
19847;DHT22;10084;50.518;8.588;2022-11-20T14:56:39;21.00;45.00
19847;DHT22;10084;50.518;8.588;2022-11-20T14:59:05;21.00;45.00
19847;DHT22;10084;50.518;8.588;2022-11-20T15:01:33;21.00;45.10
19847;DHT22;10084;50.518;8.588;2022-11-20T15:04:07;21.00;45.20
19847;DHT22;10084;50.518;8.588;2022-11-20T15:06:34;21.00;45.20
19847;DHT22;10084;50.518;8.588;2022-11-20T15:09:12;21.00;45.20
19847;DHT22;10084;50.518;8.588;2022-11-20T15:11:38;21.00;45.30
19847;DHT22;10084;50.518;8.588;2022-11-20T15:14:05;21.00;45.30
19847;DHT22;10084;50.518;8.588;2022-11-20T15:16:32;21.00;45.30
19847;DHT22;10084;50.518;8.588;2022-11-20T15:18:58;21.00;45.40
19847;DHT22;10084;50.518;8.588;2022-11-20T15:21:25;20.90;45.30
19847;DHT22;10084;50.518;8.588;2022-11-20T15:23:51;21.00;45.40
19847;DHT22;10084;50.518;8.588;2022-11-20T15:26:24;21.00;45.50
19847;DHT22;10084;50.518;8.588;2022-11-20T15:28:51;21.00;45.50
19847;DHT22;10084;50.518;8.588;2022-11-20T15:31:21;21.00;45.50
19847;DHT22;10084;50.518;8.588;2022-11-20T15:33:47;21.00;45.60
19847;DHT22;10084;50.518;8.588;2022-11-20T15:36:13;21.00;45.70
19847;DHT22;10084;50.518;8.588;2022-11-20T15:38:39;21.00;45.70
19847;DHT22;10084;50.518;8.588;2022-11-20T15:41:05;21.00;45.80
19847;DHT22;10084;50.518;8.588;2022-11-20T15:43:31;21.00;45.80
19847;DHT22;10084;50.518;8.588;2022-11-20T15:46:06;21.00;45.80
19847;DHT22;10084;50.518;8.588;2022-11-20T15:48:45;21.00;45.90
19847;DHT22;10084;50.518;8.588;2022-11-20T15:51:26;21.00;46.00
19847;DHT22;10084;50.518;8.588;2022-11-20T15:53:52;21.00;46.00
19847;DHT22;10084;50.518;8.588;2022-11-20T15:56:19;21.00;46.00
19847;DHT22;10084;50.518;8.588;2022-11-20T15:58:45;21.00;46.00
19847;DHT22;10084;50.518;8.588;2022-11-20T16:01:16;21.00;46.10
19847;DHT22;10084;50.518;8.588;2022-11-20T16:03:42;21.00;46.10
19847;DHT22;10084;50.518;8.588;2022-11-20T16:06:08;21.00;46.10
19847;DHT22;10084;50.518;8.588;2022-11-20T16:08:34;21.00;46.10
19847;DHT22;10084;50.518;8.588;2022-11-20T16:11:00;21.00;46.20
19847;DHT22;10084;50.518;8.588;2022-11-20T16:13:26;21.00;46.20
19847;DHT22;10084;50.518;8.588;2022-11-20T16:16:25;21.00;46.20
19847;DHT22;10084;50.518;8.588;2022-11-20T16:18:54;21.00;46.30
19847;DHT22;10084;50.518;8.588;2022-11-20T16:21:20;21.00;46.10
19847;DHT22;10084;50.518;8.588;2022-11-20T16:23:45;21.00;46.20
19847;DHT22;10084;50.518;8.588;2022-11-20T16:26:17;21.00;46.20
19847;DHT22;10084;50.518;8.588;2022-11-20T16:28:44;21.00;46.20
19847;DHT22;10084;50.518;8.588;2022-11-20T16:31:15;21.00;46.20
19847;DHT22;10084;50.518;8.588;2022-11-20T16:33:41;21.00;46.20
19847;DHT22;10084;50.518;8.588;2022-11-20T16:36:12;21.00;46.10
19847;DHT22;10084;50.518;8.588;2022-11-20T16:38:38;21.00;46.10
19847;DHT22;10084;50.518;8.588;2022-11-20T16:41:05;21.00;46.10
19847;DHT22;10084;50.518;8.588;2022-11-20T16:43:31;21.00;46.10
19847;DHT22;10084;50.518;8.588;2022-11-20T16:45:57;21.00;46.10
19847;DHT22;10084;50.518;8.588;2022-11-20T16:48:22;21.00;46.10
19847;DHT22;10084;50.518;8.588;2022-11-20T16:50:51;21.00;46.10
19847;DHT22;10084;50.518;8.588;2022-11-20T16:53:18;21.10;46.10
19847;DHT22;10084;50.518;8.588;2022-11-20T16:55:44;21.10;46.10
19847;DHT22;10084;50.518;8.588;2022-11-20T16:58:11;21.10;46.10
19847;DHT22;10084;50.518;8.588;2022-11-20T17:00:40;21.10;46.10
19847;DHT22;10084;50.518;8.588;2022-11-20T17:03:06;21.10;46.10
19847;DHT22;10084;50.518;8.588;2022-11-20T17:05:33;21.10;46.10
19847;DHT22;10084;50.518;8.588;2022-11-20T17:07:59;21.10;46.00